KSHD/SHD METAR and TAF weather

Enter ICAO airport designator
Station Type Date Time Source
KSHD METAR 2020/12/06 01:15 UTC NOAA

KSHD 060115Z AUTO 33003KT 10SM OVC050 04/M04 A2999 RMK AO2 T00351043


Station Type Date Time Source
KSHD Decoded METAR 2020/12/06 01:15 UTC NOAA

Staunton / Shenandoah, VA, United States (KSHD) 38-16N 078-54W
Dec 05, 2020 - 08:15 PM EST / 2020.12.06 0115 UTC
Wind: from the NNW (330 degrees) at 3 MPH (3 KT):0
Visibility: 10 mile(s):0
Sky conditions: overcast
Temperature: 38.3 F (3.5 C)
Dew Point: 24.3 F (-4.3 C)
Relative Humidity: 56%
Pressure (altimeter): 29.99 in. Hg (1015 hPa)
ob: KSHD 060115Z AUTO 33003KT 10SM OVC050 04/M04 A2999 RMK AO2 T00351043
cycle: 1

Station Type Date Time Source
KSHD TAF UTC NOAA

Error!

Example: see airport list